createdAt,value
2022-11-05T00:00:03.405Z,8.13
2022-11-05T00:02:48.409Z,8.10
2022-11-05T00:05:33.652Z,8.07
2022-11-05T00:08:22.537Z,8.04
2022-11-05T00:10:49.212Z,8.01
2022-11-05T00:13:34.841Z,7.99
2022-11-05T00:16:39.514Z,7.96
2022-11-05T00:19:10.041Z,7.95
2022-11-05T00:21:57.034Z,7.91
2022-11-05T00:24:42.294Z,7.90
2022-11-05T00:27:09.458Z,7.85
2022-11-05T00:29:36.004Z,7.82
2022-11-05T00:32:02.661Z,7.82
2022-11-05T00:34:29.257Z,7.78
2022-11-05T00:36:56.117Z,7.76
2022-11-05T00:39:22.981Z,7.73
2022-11-05T00:42:09.469Z,7.71
2022-11-05T00:44:54.504Z,7.69
2022-11-05T00:47:44.515Z,7.67
2022-11-05T00:50:11.843Z,7.67
2022-11-05T00:52:57.247Z,7.65
2022-11-05T00:55:25.623Z,7.64
2022-11-05T00:57:52.447Z,7.62
2022-11-05T01:00:19.068Z,7.61
2022-11-05T01:02:46.292Z,7.59
2022-11-05T01:05:13.780Z,7.53
2022-11-05T01:07:40.569Z,7.51
2022-11-05T01:10:07.517Z,7.47
2022-11-05T01:12:34.248Z,7.44
2022-11-05T01:15:01.114Z,7.43
2022-11-05T01:17:27.784Z,7.42
2022-11-05T01:19:54.260Z,7.39
2022-11-05T01:22:20.808Z,7.41
2022-11-05T01:24:47.265Z,7.39
2022-11-05T01:27:13.689Z,7.37
2022-11-05T01:29:40.297Z,7.35
2022-11-05T01:32:06.848Z,7.36
2022-11-05T01:34:33.343Z,7.36
2022-11-05T01:36:59.932Z,7.36
2022-11-05T01:39:26.429Z,7.37
2022-11-05T01:41:52.905Z,7.35
2022-11-05T01:44:53.621Z,7.36
2022-11-05T01:47:31.826Z,7.34
2022-11-05T01:50:03.398Z,7.31
2022-11-05T01:52:34.137Z,7.27
2022-11-05T01:55:02.062Z,7.25
2022-11-05T01:57:29.549Z,7.23
2022-11-05T01:59:59.831Z,7.25
2022-11-05T02:02:26.916Z,7.24
2022-11-05T02:05:05.689Z,7.26
2022-11-05T02:07:33.847Z,7.22
2022-11-05T02:10:06.907Z,7.23
2022-11-05T02:12:36.544Z,7.19
2022-11-05T02:15:04.816Z,7.18
2022-11-05T02:17:45.280Z,7.19
2022-11-05T02:20:46.796Z,7.18
2022-11-05T02:23:44.840Z,7.17
2022-11-05T02:26:49.270Z,7.18
2022-11-05T02:29:51.963Z,7.17
2022-11-05T02:32:34.199Z,7.14
2022-11-05T02:35:30.662Z,7.13
2022-11-05T02:38:09.996Z,7.11
2022-11-05T02:40:54.069Z,7.08
2022-11-05T02:43:36.749Z,7.07
2022-11-05T02:46:12.111Z,7.04
2022-11-05T02:48:59.800Z,7.04
2022-11-05T02:51:39.479Z,7.03
2022-11-05T02:54:41.507Z,7.02
2022-11-05T02:57:08.282Z,6.99
2022-11-05T02:59:34.710Z,6.99
2022-11-05T03:02:02.975Z,6.99
2022-11-05T03:04:31.114Z,6.97
2022-11-05T03:07:16.389Z,6.98
2022-11-05T03:09:55.043Z,6.96
2022-11-05T03:12:27.586Z,6.92
2022-11-05T03:15:06.170Z,6.93
2022-11-05T03:17:41.723Z,6.91
2022-11-05T03:20:11.062Z,6.88
2022-11-05T03:22:43.611Z,6.89
2022-11-05T03:25:15.820Z,6.88
2022-11-05T03:27:47.558Z,6.85
2022-11-05T03:30:16.094Z,6.83
2022-11-05T03:32:48.400Z,6.82
2022-11-05T03:35:20.634Z,6.80
2022-11-05T03:37:50.066Z,6.79
2022-11-05T03:40:19.721Z,6.72
2022-11-05T03:42:49.879Z,6.69
2022-11-05T03:45:27.894Z,6.70
2022-11-05T03:48:00.047Z,6.72
2022-11-05T03:50:49.242Z,6.71
2022-11-05T03:53:20.868Z,6.68
2022-11-05T03:55:55.527Z,6.68
2022-11-05T03:58:23.538Z,6.68
2022-11-05T04:00:51.049Z,6.71
2022-11-05T04:03:17.610Z,6.71
2022-11-05T04:05:44.539Z,6.71
2022-11-05T04:08:29.510Z,6.72
2022-11-05T04:11:14.442Z,6.73
2022-11-05T04:13:40.853Z,6.74
2022-11-05T04:16:26.070Z,6.72
2022-11-05T04:18:52.494Z,6.73
2022-11-05T04:21:37.842Z,6.72
2022-11-05T04:24:10.343Z,6.75
2022-11-05T04:26:45.962Z,6.79
2022-11-05T04:29:30.773Z,6.79
2022-11-05T04:31:57.466Z,6.80
2022-11-05T04:34:23.985Z,6.79
2022-11-05T04:36:51.877Z,6.79
2022-11-05T04:39:19.280Z,6.80
2022-11-05T04:41:48.146Z,6.79
2022-11-05T04:44:15.806Z,6.79
2022-11-05T04:46:42.519Z,6.80
2022-11-05T04:49:08.974Z,6.81
2022-11-05T04:51:35.462Z,6.83
2022-11-05T04:54:02.104Z,6.86
2022-11-05T04:56:28.557Z,6.89
2022-11-05T04:58:54.984Z,6.90
2022-11-05T05:01:23.659Z,6.91
2022-11-05T05:03:51.900Z,6.90
2022-11-05T05:06:19.120Z,6.90
2022-11-05T05:08:49.555Z,6.90
2022-11-05T05:11:18.191Z,6.89
2022-11-05T05:13:44.667Z,6.89
2022-11-05T05:16:16.905Z,6.93
2022-11-05T05:18:46.185Z,6.91
2022-11-05T05:21:32.188Z,6.93
2022-11-05T05:23:58.829Z,6.95
2022-11-05T05:26:25.317Z,6.94
2022-11-05T05:28:55.337Z,6.92
2022-11-05T05:31:22.617Z,6.92
2022-11-05T05:33:49.222Z,6.91
2022-11-05T05:36:15.687Z,6.91
2022-11-05T05:38:42.229Z,6.91
2022-11-05T05:41:08.735Z,6.91
2022-11-05T05:43:35.159Z,6.90
2022-11-05T05:46:06.729Z,6.91
2022-11-05T05:48:33.853Z,6.91
2022-11-05T05:51:02.162Z,6.90
2022-11-05T05:53:29.439Z,6.90
2022-11-05T05:55:56.957Z,6.88
2022-11-05T05:58:26.777Z,6.87
2022-11-05T06:00:54.272Z,6.87
2022-11-05T06:03:21.079Z,6.87
2022-11-05T06:05:47.555Z,6.87
2022-11-05T06:08:13.983Z,6.88
2022-11-05T06:10:40.511Z,6.90
2022-11-05T06:13:07.098Z,6.91
2022-11-05T06:15:36.092Z,6.93
2022-11-05T06:18:02.735Z,6.93
2022-11-05T06:20:29.229Z,6.96
2022-11-05T06:22:58.774Z,6.97
2022-11-05T06:25:26.133Z,6.98
2022-11-05T06:27:53.567Z,7.02
2022-11-05T06:30:21.677Z,7.04
2022-11-05T06:32:48.180Z,7.06
2022-11-05T06:35:14.748Z,7.08
2022-11-05T06:37:41.147Z,7.09
2022-11-05T06:40:08.797Z,7.11
2022-11-05T06:42:35.298Z,7.11
2022-11-05T06:45:01.772Z,7.12
2022-11-05T06:47:28.171Z,7.14
2022-11-05T06:49:54.850Z,7.17
2022-11-05T06:52:21.353Z,7.17
2022-11-05T06:54:48.176Z,7.17
2022-11-05T06:57:15.140Z,7.17
2022-11-05T06:59:42.017Z,7.15
2022-11-05T07:02:11.674Z,7.15
2022-11-05T07:04:38.195Z,7.11
2022-11-05T07:07:04.921Z,7.09
2022-11-05T07:09:31.335Z,7.07
2022-11-05T07:11:57.748Z,7.05
2022-11-05T07:14:24.182Z,7.05
2022-11-05T07:16:50.799Z,7.02
2022-11-05T07:19:17.194Z,7.02
2022-11-05T07:21:43.646Z,7.02
2022-11-05T07:24:10.071Z,7.02
2022-11-05T07:26:36.477Z,7.03
2022-11-05T07:29:02.877Z,7.04
2022-11-05T07:31:29.299Z,7.05
2022-11-05T07:33:55.702Z,7.06
2022-11-05T07:36:22.194Z,7.10
2022-11-05T07:38:48.679Z,7.12
2022-11-05T07:41:15.080Z,7.17
2022-11-05T07:43:41.708Z,7.18
2022-11-05T07:46:13.556Z,7.20
2022-11-05T07:48:40.610Z,7.22
2022-11-05T07:51:07.033Z,7.24
2022-11-05T07:53:33.595Z,7.27
2022-11-05T07:56:00.075Z,7.30
2022-11-05T07:58:26.743Z,7.32
2022-11-05T08:00:53.404Z,7.35
2022-11-05T08:03:20.709Z,7.39
2022-11-05T08:05:48.247Z,7.40
2022-11-05T08:08:18.532Z,7.42
2022-11-05T08:10:45.546Z,7.44
2022-11-05T08:13:13.557Z,7.49
2022-11-05T08:15:40.770Z,7.55
2022-11-05T08:18:10.533Z,7.63
2022-11-05T08:20:39.046Z,7.71
2022-11-05T08:23:05.800Z,7.81
2022-11-05T08:25:32.370Z,7.90
2022-11-05T08:28:02.818Z,8.02
2022-11-05T08:30:30.276Z,8.10
2022-11-05T08:33:02.465Z,8.18
2022-11-05T08:35:29.470Z,8.24
2022-11-05T08:38:02.586Z,8.28
2022-11-05T08:40:31.330Z,8.30
2022-11-05T08:43:04.813Z,8.35
2022-11-05T08:45:31.808Z,8.37
2022-11-05T08:48:02.826Z,8.40
2022-11-05T08:50:30.908Z,8.44
2022-11-05T08:52:57.591Z,8.49
2022-11-05T08:55:24.707Z,8.52
2022-11-05T08:58:10.802Z,8.59
2022-11-05T09:00:37.986Z,8.64
2022-11-05T09:03:07.142Z,8.73
2022-11-05T09:05:37.818Z,8.83
2022-11-05T09:08:05.634Z,8.95
2022-11-05T09:10:32.844Z,9.08
2022-11-05T09:12:59.326Z,9.21
2022-11-05T09:15:25.715Z,9.34
2022-11-05T09:17:52.206Z,9.47
2022-11-05T09:20:18.867Z,9.55
2022-11-05T09:22:46.684Z,9.63
2022-11-05T09:25:13.750Z,9.71
2022-11-05T09:27:40.335Z,9.71
2022-11-05T09:30:07.393Z,9.79
2022-11-05T09:32:34.117Z,9.84
2022-11-05T09:35:01.182Z,9.73
2022-11-05T09:37:28.319Z,9.84
2022-11-05T09:39:55.769Z,9.99
2022-11-05T09:42:29.149Z,10.09
2022-11-05T09:45:01.517Z,9.95
2022-11-05T09:47:33.177Z,9.95
2022-11-05T09:50:02.592Z,9.96
2022-11-05T09:52:31.717Z,10.05
2022-11-05T09:54:58.529Z,10.03
2022-11-05T09:57:36.344Z,9.91
2022-11-05T10:00:07.259Z,9.79
2022-11-05T10:02:39.911Z,9.73
2022-11-05T10:05:11.311Z,9.86
2022-11-05T10:07:46.670Z,9.94
2022-11-05T10:10:40.371Z,10.04
2022-11-05T10:13:29.731Z,10.05
2022-11-05T10:16:14.572Z,10.09
2022-11-05T10:18:44.364Z,10.17
2022-11-05T10:21:37.715Z,10.18
2022-11-05T10:24:17.634Z,10.21
2022-11-05T10:26:50.506Z,10.20
2022-11-05T10:29:27.310Z,10.17
2022-11-05T10:31:56.450Z,10.16
2022-11-05T10:34:27.910Z,10.18
2022-11-05T10:36:54.507Z,10.17
2022-11-05T10:39:21.593Z,10.18
2022-11-05T10:42:09.822Z,10.20
2022-11-05T10:44:42.526Z,10.23
2022-11-05T10:47:17.011Z,10.27
2022-11-05T10:50:10.208Z,10.30
2022-11-05T10:52:40.245Z,10.32
2022-11-05T10:55:17.111Z,10.37
2022-11-05T10:57:43.676Z,10.36
2022-11-05T11:00:19.413Z,10.37
2022-11-05T11:02:57.794Z,10.37
2022-11-05T11:05:30.912Z,10.38
2022-11-05T11:08:24.985Z,10.40
2022-11-05T11:10:54.682Z,10.38
2022-11-05T11:13:25.262Z,10.42
2022-11-05T11:15:52.534Z,10.43
2022-11-05T11:18:40.470Z,10.44
2022-11-05T11:21:14.800Z,10.46
2022-11-05T11:23:43.007Z,10.48
2022-11-05T11:26:12.477Z,10.47
2022-11-05T11:28:53.579Z,10.54
2022-11-05T11:31:26.604Z,10.61
2022-11-05T11:34:33.772Z,10.63
2022-11-05T11:37:08.294Z,10.65
2022-11-05T11:39:35.798Z,10.67
2022-11-05T11:42:11.287Z,10.69
2022-11-05T11:44:43.693Z,10.69
2022-11-05T11:47:15.557Z,10.68
2022-11-05T11:49:42.040Z,10.67
2022-11-05T11:52:16.280Z,10.68
2022-11-05T11:54:42.994Z,10.67
2022-11-05T11:57:29.300Z,10.67
2022-11-05T12:00:14.631Z,10.63
2022-11-05T12:03:16.965Z,10.63
2022-11-05T12:06:15.560Z,10.64
2022-11-05T12:09:08.205Z,10.64
2022-11-05T12:11:50.481Z,10.68
2022-11-05T12:14:23.638Z,10.72
2022-11-05T12:17:21.879Z,10.79
2022-11-05T12:20:09.805Z,10.84
2022-11-05T12:22:45.224Z,10.86
2022-11-05T12:25:35.298Z,10.94
2022-11-05T12:28:24.204Z,10.99
2022-11-05T12:31:06.513Z,11.12
2022-11-05T12:33:56.152Z,11.22
2022-11-05T12:36:47.093Z,11.30
2022-11-05T12:39:13.634Z,11.33
2022-11-05T12:41:53.910Z,11.33
2022-11-05T12:44:34.543Z,11.34
2022-11-05T12:47:39.144Z,11.35
2022-11-05T12:50:33.743Z,11.32
2022-11-05T12:53:21.760Z,11.28
2022-11-05T12:55:49.727Z,11.23
2022-11-05T12:58:31.405Z,11.26
2022-11-05T13:01:15.017Z,11.26
2022-11-05T13:03:52.238Z,11.29
2022-11-05T13:06:30.938Z,11.31
2022-11-05T13:09:15.309Z,11.31
2022-11-05T13:11:53.775Z,11.30
2022-11-05T13:14:30.139Z,11.30
2022-11-05T13:17:01.394Z,11.29
2022-11-05T13:20:02.207Z,11.32
2022-11-05T13:22:44.415Z,11.30
2022-11-05T13:25:24.262Z,11.30
2022-11-05T13:27:59.632Z,11.31
2022-11-05T13:30:30.601Z,11.33
2022-11-05T13:33:04.317Z,11.34
2022-11-05T13:35:40.767Z,11.35
2022-11-05T13:38:33.593Z,11.38
2022-11-05T13:41:18.407Z,11.41
2022-11-05T13:44:14.279Z,11.40
2022-11-05T13:46:59.602Z,11.41
2022-11-05T13:49:55.392Z,11.38
2022-11-05T13:52:59.355Z,11.37
2022-11-05T13:55:37.982Z,11.36
2022-11-05T13:58:34.867Z,11.39
2022-11-05T14:01:45.468Z,11.36
2022-11-05T14:04:24.327Z,11.34
2022-11-05T14:06:51.105Z,11.31
2022-11-05T14:09:24.802Z,11.30
2022-11-05T14:11:55.552Z,11.27
2022-11-05T14:14:26.768Z,11.28
2022-11-05T14:17:09.346Z,11.29
2022-11-05T14:19:50.668Z,11.28
2022-11-05T14:22:38.502Z,11.29
2022-11-05T14:25:20.208Z,11.27
2022-11-05T14:27:51.804Z,11.24
2022-11-05T14:30:56.841Z,11.22
2022-11-05T14:33:25.856Z,11.16
2022-11-05T14:36:20.301Z,11.11
2022-11-05T14:38:49.775Z,11.04
2022-11-05T14:41:17.376Z,11.02
2022-11-05T14:43:57.613Z,11.01
2022-11-05T14:46:24.607Z,10.98
2022-11-05T14:48:58.323Z,10.96
2022-11-05T14:51:45.910Z,10.97
2022-11-05T14:54:24.080Z,10.96
2022-11-05T14:56:59.846Z,10.94
2022-11-05T14:59:31.440Z,10.92
2022-11-05T15:02:03.606Z,10.89
2022-11-05T15:04:31.680Z,10.87
2022-11-05T15:07:24.206Z,10.87
2022-11-05T15:10:03.206Z,10.83
2022-11-05T15:12:56.637Z,10.81
2022-11-05T15:15:27.863Z,10.80
2022-11-05T15:18:19.047Z,10.81
2022-11-05T15:20:48.617Z,10.80
2022-11-05T15:23:19.388Z,10.80
2022-11-05T15:26:09.197Z,10.82
2022-11-05T15:28:39.825Z,10.79
2022-11-05T15:31:31.674Z,10.78
2022-11-05T15:34:16.555Z,10.77
2022-11-05T15:36:57.917Z,10.76
2022-11-05T15:39:32.014Z,10.73
2022-11-05T15:42:04.778Z,10.72
2022-11-05T15:44:43.510Z,10.73
2022-11-05T15:47:25.073Z,10.71
2022-11-05T15:49:57.756Z,10.69
2022-11-05T15:52:31.435Z,10.68
2022-11-05T15:55:08.114Z,10.69
2022-11-05T15:57:39.898Z,10.66
2022-11-05T16:00:15.666Z,10.68
2022-11-05T16:02:42.949Z,10.65
2022-11-05T16:05:13.681Z,10.66
2022-11-05T16:07:47.738Z,10.66
2022-11-05T16:10:21.560Z,10.64
2022-11-05T16:12:48.562Z,10.61
2022-11-05T16:15:14.958Z,10.60
2022-11-05T16:17:50.613Z,10.60
2022-11-05T16:20:33.557Z,10.58
2022-11-05T16:23:06.990Z,10.56
2022-11-05T16:25:40.487Z,10.57
2022-11-05T16:28:19.569Z,10.56
2022-11-05T16:30:57.651Z,10.56
2022-11-05T16:33:27.251Z,10.54
2022-11-05T16:35:53.731Z,10.52
2022-11-05T16:38:20.964Z,10.50
2022-11-05T16:40:47.566Z,10.50
2022-11-05T16:43:21.186Z,10.48
2022-11-05T16:45:47.878Z,10.48
2022-11-05T16:48:15.530Z,10.47
2022-11-05T16:50:42.823Z,10.44
2022-11-05T16:53:09.524Z,10.43
2022-11-05T16:55:38.816Z,10.45
2022-11-05T16:58:07.401Z,10.42
2022-11-05T17:00:33.995Z,10.42
2022-11-05T17:03:00.543Z,10.42
2022-11-05T17:05:31.169Z,10.43
2022-11-05T17:07:58.428Z,10.40
2022-11-05T17:10:25.854Z,10.40
2022-11-05T17:12:52.957Z,10.40
2022-11-05T17:15:35.545Z,10.42
2022-11-05T17:18:03.712Z,10.39
2022-11-05T17:20:41.607Z,10.40
2022-11-05T17:23:11.019Z,10.39
2022-11-05T17:25:38.804Z,10.39
2022-11-05T17:28:05.680Z,10.39
2022-11-05T17:30:32.715Z,10.40
2022-11-05T17:32:59.301Z,10.40
2022-11-05T17:35:26.777Z,10.39
2022-11-05T17:37:53.409Z,10.39
2022-11-05T17:40:22.635Z,10.39
2022-11-05T17:42:50.584Z,10.38
2022-11-05T17:45:18.010Z,10.38
2022-11-05T17:47:44.770Z,10.39
2022-11-05T17:50:14.222Z,10.39
2022-11-05T17:52:41.012Z,10.39
2022-11-05T17:55:16.519Z,10.37
2022-11-05T17:57:47.763Z,10.37
2022-11-05T18:00:16.673Z,10.37
2022-11-05T18:02:43.399Z,10.37
2022-11-05T18:05:10.835Z,10.37
2022-11-05T18:07:37.317Z,10.38
2022-11-05T18:10:04.956Z,10.38
2022-11-05T18:12:31.560Z,10.39
2022-11-05T18:14:58.073Z,10.37
2022-11-05T18:17:24.639Z,10.35
2022-11-05T18:19:51.138Z,10.32
2022-11-05T18:22:19.448Z,10.31
2022-11-05T18:24:46.745Z,10.29
2022-11-05T18:27:13.394Z,10.27
2022-11-05T18:29:39.871Z,10.25
2022-11-05T18:32:06.755Z,10.24
2022-11-05T18:34:33.260Z,10.22
2022-11-05T18:36:59.741Z,10.23
2022-11-05T18:39:26.146Z,10.22
2022-11-05T18:41:52.668Z,10.24
2022-11-05T18:44:22.741Z,10.23
2022-11-05T18:46:58.229Z,10.21
2022-11-05T18:49:25.524Z,10.22
2022-11-05T18:51:51.993Z,10.21
2022-11-05T18:54:18.420Z,10.19
2022-11-05T18:56:45.608Z,10.19
2022-11-05T19:02:00.651Z,10.19
2022-11-05T19:04:27.431Z,10.21
2022-11-05T19:06:54.350Z,10.21
2022-11-05T19:09:20.911Z,10.23
2022-11-05T19:11:47.785Z,10.22
2022-11-05T19:14:14.286Z,10.24
2022-11-05T19:16:40.769Z,10.24
2022-11-05T19:19:07.513Z,10.24
2022-11-05T19:21:34.105Z,10.25
2022-11-05T19:24:02.443Z,10.24
2022-11-05T19:26:29.393Z,10.23
2022-11-05T19:28:58.996Z,10.20
2022-11-05T19:31:26.598Z,10.19
2022-11-05T19:33:53.786Z,10.18
2022-11-05T19:36:22.291Z,10.16
2022-11-05T19:39:00.794Z,10.17
2022-11-05T19:41:28.304Z,10.15
2022-11-05T19:43:58.164Z,10.14
2022-11-05T19:46:25.575Z,10.15
2022-11-05T19:48:52.288Z,10.14
2022-11-05T19:51:22.392Z,10.15
2022-11-05T19:53:51.471Z,10.16
2022-11-05T19:56:20.544Z,10.18
2022-11-05T19:58:47.060Z,10.17
2022-11-05T20:01:15.283Z,10.17
2022-11-05T20:03:42.404Z,10.18
2022-11-05T20:06:14.928Z,10.20
2022-11-05T20:08:59.746Z,10.19
2022-11-05T20:11:29.328Z,10.19
2022-11-05T20:13:56.927Z,10.19
2022-11-05T20:16:29.249Z,10.18
2022-11-05T20:18:57.145Z,10.17
2022-11-05T20:21:23.853Z,10.18
2022-11-05T20:23:50.663Z,10.16
2022-11-05T20:26:17.365Z,10.15
2022-11-05T20:28:44.282Z,10.15
2022-11-05T20:31:13.469Z,10.15
2022-11-05T20:33:40.845Z,10.14
2022-11-05T20:36:10.918Z,10.15
2022-11-05T20:38:37.714Z,10.14
2022-11-05T20:41:09.268Z,10.14
2022-11-05T20:43:36.906Z,10.13
2022-11-05T20:46:03.972Z,10.12
2022-11-05T20:48:32.510Z,10.09
2022-11-05T20:50:59.970Z,10.09
2022-11-05T20:53:26.549Z,10.09
2022-11-05T20:55:53.189Z,10.08
2022-11-05T20:58:19.678Z,10.08
2022-11-05T21:01:05.506Z,10.08
2022-11-05T21:03:32.735Z,10.04
2022-11-05T21:06:04.121Z,10.03
2022-11-05T21:08:30.690Z,10.00
2022-11-05T21:10:57.391Z,9.98
2022-11-05T21:13:25.068Z,9.98
2022-11-05T21:15:54.671Z,9.96
2022-11-05T21:18:23.619Z,9.95
2022-11-05T21:20:50.529Z,9.94
2022-11-05T21:23:17.281Z,9.92
2022-11-05T21:25:44.466Z,9.92
2022-11-05T21:28:13.065Z,9.91
2022-11-05T21:30:45.435Z,9.90
2022-11-05T21:33:16.028Z,9.89
2022-11-05T21:35:48.990Z,9.88
2022-11-05T21:38:17.450Z,9.88
2022-11-05T21:40:45.402Z,9.88
2022-11-05T21:43:12.503Z,9.88
2022-11-05T21:45:40.187Z,9.88
2022-11-05T21:48:07.779Z,9.89
2022-11-05T21:50:53.208Z,9.89
2022-11-05T21:53:38.735Z,9.87
2022-11-05T21:56:51.434Z,9.89
2022-11-05T21:59:40.000Z,9.89
2022-11-05T22:02:07.915Z,9.90
2022-11-05T22:04:37.174Z,9.89
2022-11-05T22:07:04.659Z,9.89
2022-11-05T22:09:31.266Z,9.86
2022-11-05T22:11:58.197Z,9.88
2022-11-05T22:14:25.184Z,9.87
2022-11-05T22:16:51.718Z,9.86
2022-11-05T22:19:18.698Z,9.87
2022-11-05T22:21:45.562Z,9.86
2022-11-05T22:24:12.431Z,9.86
2022-11-05T22:26:41.462Z,9.86
2022-11-05T22:29:08.835Z,9.85
2022-11-05T22:31:36.818Z,9.84
2022-11-05T22:34:04.738Z,9.84
2022-11-05T22:36:32.349Z,9.83
2022-11-05T22:38:59.190Z,9.85
2022-11-05T22:41:26.900Z,9.85
2022-11-05T22:43:53.418Z,9.84
2022-11-05T22:46:22.422Z,9.85
2022-11-05T22:48:49.773Z,9.83
2022-11-05T22:51:19.131Z,9.83
2022-11-05T22:53:46.125Z,9.82
2022-11-05T22:56:19.270Z,9.83
2022-11-05T22:58:46.420Z,9.82
2022-11-05T23:01:13.719Z,9.83
2022-11-05T23:03:42.130Z,9.83
2022-11-05T23:06:31.718Z,9.84
2022-11-05T23:09:17.548Z,9.85
2022-11-05T23:11:47.072Z,9.85
2022-11-05T23:14:14.543Z,9.85
2022-11-05T23:17:00.684Z,9.84
2022-11-05T23:19:46.096Z,9.86
2022-11-05T23:22:33.933Z,9.85
2022-11-05T23:25:00.701Z,9.83
2022-11-05T23:27:32.564Z,9.84
2022-11-05T23:30:00.583Z,9.81
2022-11-05T23:32:29.879Z,9.80
2022-11-05T23:34:58.115Z,9.80
2022-11-05T23:37:45.572Z,9.80
2022-11-05T23:40:15.690Z,9.77
2022-11-05T23:43:02.386Z,9.75
2022-11-05T23:45:47.676Z,9.73
2022-11-05T23:48:21.066Z,9.76
2022-11-05T23:51:08.998Z,9.77
2022-11-05T23:53:37.924Z,9.75
2022-11-05T23:56:08.577Z,9.76
2022-11-05T23:58:36.796Z,9.76
